createdAt,value
2017-05-13T00:00:55.177Z,1003.31
2017-05-13T00:02:05.698Z,1003.29
2017-05-13T00:03:15.672Z,1003.35
2017-05-13T00:04:25.952Z,1003.33
2017-05-13T00:05:36.251Z,1003.31
2017-05-13T00:06:46.577Z,1003.29
2017-05-13T00:07:57.118Z,1003.32
2017-05-13T00:09:07.419Z,1003.29
2017-05-13T00:10:17.695Z,1003.27
2017-05-13T00:11:28.013Z,1003.28
2017-05-13T00:12:38.292Z,1003.31
2017-05-13T00:13:48.879Z,1003.29
2017-05-13T00:14:59.164Z,1003.29
2017-05-13T00:16:09.444Z,1003.27
2017-05-13T00:17:19.424Z,1003.26
2017-05-13T00:18:29.702Z,1003.28
2017-05-13T00:19:39.929Z,1003.26
2017-05-13T00:20:49.914Z,1003.24
2017-05-13T00:22:00.202Z,1003.22
2017-05-13T00:23:10.478Z,1003.25
2017-05-13T00:24:20.766Z,1003.24
2017-05-13T00:25:31.300Z,1003.28
2017-05-13T00:26:41.578Z,1003.31
2017-05-13T00:27:51.861Z,1003.27
2017-05-13T00:29:02.203Z,1003.29
2017-05-13T00:30:12.519Z,1003.29
2017-05-13T00:31:23.047Z,1003.26
2017-05-13T00:32:33.326Z,1003.33
2017-05-13T00:33:43.612Z,1003.32
2017-05-13T00:34:53.893Z,1003.28
2017-05-13T00:36:04.281Z,1003.28
2017-05-13T00:37:14.816Z,1003.24
2017-05-13T00:38:25.096Z,1003.24
2017-05-13T00:39:35.077Z,1003.24
2017-05-13T00:40:45.358Z,1003.27
2017-05-13T00:41:55.376Z,1003.26
2017-05-13T00:43:05.283Z,1003.27
2017-05-13T00:44:15.559Z,1003.26
2017-05-13T00:45:25.849Z,1003.25
2017-05-13T00:46:35.817Z,1003.23
2017-05-13T00:47:46.110Z,1003.22
2017-05-13T00:48:56.345Z,1003.17
2017-05-13T00:50:06.319Z,1003.18
2017-05-13T00:51:16.602Z,1003.19
2017-05-13T00:52:26.886Z,1003.14
2017-05-13T00:53:37.166Z,1003.18
2017-05-13T00:54:47.707Z,1003.16
2017-05-13T00:55:57.688Z,1003.17
2017-05-13T00:57:07.967Z,1003.16
2017-05-13T00:58:18.257Z,1003.2
2017-05-13T00:59:28.228Z,1003.2
2017-05-13T01:00:38.467Z,1003.18
2017-05-13T01:01:48.823Z,1003.25
2017-05-13T01:02:59.118Z,1003.24
2017-05-13T01:04:09.418Z,1003.21
2017-05-13T01:05:19.385Z,1003.24
2017-05-13T01:06:29.942Z,1003.21
2017-05-13T01:07:40.225Z,1003.22
2017-05-13T01:08:50.520Z,1003.17
2017-05-13T01:10:00.811Z,1003.21
2017-05-13T01:11:11.088Z,1003.23
2017-05-13T01:12:21.621Z,1003.21
2017-05-13T01:13:31.910Z,1003.21
2017-05-13T01:14:42.207Z,1003.15
2017-05-13T01:15:52.480Z,1003.16
2017-05-13T01:17:02.761Z,1003.17
2017-05-13T01:18:13.292Z,1003.2
2017-05-13T01:19:23.581Z,1003.16
2017-05-13T01:20:33.859Z,1003.16
2017-05-13T01:21:44.149Z,1003.14
2017-05-13T01:22:54.485Z,1003.15
2017-05-13T01:24:05.056Z,1003.16
2017-05-13T01:25:15.345Z,1003.16
2017-05-13T01:26:25.004Z,1003.18
2017-05-13T01:27:34.673Z,1003.13
2017-05-13T01:28:44.651Z,1003.12
2017-05-13T01:29:55.307Z,1003.14
2017-05-13T01:31:05.285Z,1003.13
2017-05-13T01:32:14.951Z,1003.15
2017-05-13T01:33:25.247Z,1003.16
2017-05-13T01:34:35.223Z,1003.19
2017-05-13T01:35:45.800Z,1003.15
2017-05-13T01:36:55.780Z,1003.16
2017-05-13T01:38:06.060Z,1003.14
2017-05-13T01:39:16.342Z,1003.12
2017-05-13T01:40:26.634Z,1003.12
2017-05-13T01:41:37.164Z,1003.09
2017-05-13T01:42:47.506Z,1003.1
2017-05-13T01:43:57.794Z,1003.13
2017-05-13T01:45:08.073Z,1003.13
2017-05-13T01:46:18.359Z,1003.12
2017-05-13T01:47:28.893Z,1003.14
2017-05-13T01:48:39.188Z,1003.17
2017-05-13T01:49:49.466Z,1003.16
2017-05-13T01:50:59.434Z,1003.16
2017-05-13T01:52:09.722Z,1003.17
2017-05-13T01:53:20.249Z,1003.18
2017-05-13T01:54:29.911Z,1003.16
2017-05-13T01:55:40.205Z,1003.17
2017-05-13T01:56:50.485Z,1003.21
2017-05-13T01:58:00.448Z,1003.28
2017-05-13T01:59:10.682Z,1003.27
2017-05-13T02:00:20.659Z,1003.3
2017-05-13T02:01:30.939Z,1003.32
2017-05-13T02:02:41.214Z,1003.32
2017-05-13T02:03:51.224Z,1003.34
2017-05-13T02:05:01.763Z,1003.39
2017-05-13T02:06:12.043Z,1003.37
2017-05-13T02:07:22.322Z,1003.39
2017-05-13T02:08:32.603Z,1003.33
2017-05-13T02:09:42.876Z,1003.37
2017-05-13T02:10:53.413Z,1003.42
2017-05-13T02:12:03.374Z,1003.42
2017-05-13T02:13:13.346Z,1003.44
2017-05-13T02:14:23.629Z,1003.47
2017-05-13T02:15:33.291Z,1003.46
2017-05-13T02:16:43.837Z,1003.48
2017-05-13T02:17:54.125Z,1003.44
2017-05-13T02:19:04.409Z,1003.47
2017-05-13T02:20:14.378Z,1003.47
2017-05-13T02:21:24.035Z,1003.46
2017-05-13T02:22:34.573Z,1003.51
2017-05-13T02:23:44.588Z,1003.53
2017-05-13T02:24:54.871Z,1003.5
2017-05-13T02:26:05.155Z,1003.55
2017-05-13T02:27:15.126Z,1003.51
2017-05-13T02:28:25.344Z,1003.53
2017-05-13T02:29:35.627Z,1003.53
2017-05-13T02:30:45.908Z,1003.52
2017-05-13T02:31:55.885Z,1003.56
2017-05-13T02:33:06.161Z,1003.54
2017-05-13T02:34:16.686Z,1003.53
2017-05-13T02:35:26.964Z,1003.57
2017-05-13T02:36:36.942Z,1003.62
2017-05-13T02:37:47.230Z,1003.55
2017-05-13T02:38:57.514Z,1003.58
2017-05-13T02:40:08.045Z,1003.57
2017-05-13T02:41:18.324Z,1003.63
2017-05-13T02:42:28.615Z,1003.59
2017-05-13T02:43:38.894Z,1003.62
2017-05-13T02:44:49.176Z,1003.61
2017-05-13T02:45:59.713Z,1003.63
2017-05-13T02:47:09.994Z,1003.6
2017-05-13T02:48:20.270Z,1003.64
2017-05-13T02:49:30.243Z,1003.63
2017-05-13T02:50:40.574Z,1003.66
2017-05-13T02:51:50.479Z,1003.68
2017-05-13T02:53:00.749Z,1003.67
2017-05-13T02:54:10.711Z,1003.65
2017-05-13T02:55:21.007Z,1003.64
2017-05-13T02:56:31.290Z,1003.64
2017-05-13T02:57:41.818Z,1003.66
2017-05-13T02:58:51.793Z,1003.66
2017-05-13T03:00:02.076Z,1003.68
2017-05-13T03:01:11.750Z,1003.67
2017-05-13T03:02:22.029Z,1003.7
2017-05-13T03:03:32.561Z,1003.7
2017-05-13T03:04:42.267Z,1003.68
2017-05-13T03:05:52.562Z,1003.69
2017-05-13T03:07:02.842Z,1003.71
2017-05-13T03:08:13.130Z,1003.72
2017-05-13T03:09:23.677Z,1003.72
2017-05-13T03:10:33.990Z,1003.72
2017-05-13T03:11:44.278Z,1003.66
2017-05-13T03:12:54.564Z,1003.72
2017-05-13T03:14:04.533Z,1003.71
2017-05-13T03:15:14.760Z,1003.71
2017-05-13T03:16:25.040Z,1003.78
2017-05-13T03:17:35.043Z,1003.77
2017-05-13T03:18:45.033Z,1003.76
2017-05-13T03:19:55.009Z,1003.74
2017-05-13T03:21:05.229Z,1003.79
2017-05-13T03:22:15.206Z,1003.75
2017-05-13T03:23:25.486Z,1003.8
2017-05-13T03:24:35.461Z,1003.78
2017-05-13T03:25:45.743Z,1003.78
2017-05-13T03:26:56.327Z,1003.79
2017-05-13T03:28:05.986Z,1003.83
2017-05-13T03:29:16.314Z,1003.8
2017-05-13T03:30:26.601Z,1003.78
2017-05-13T03:31:36.562Z,1003.81
2017-05-13T03:32:47.099Z,1003.74
2017-05-13T03:33:57.074Z,1003.8
2017-05-13T03:35:07.371Z,1003.79
2017-05-13T03:36:17.648Z,1003.77
2017-05-13T03:37:27.616Z,1003.78
2017-05-13T03:38:38.150Z,1003.84
2017-05-13T03:39:48.122Z,1003.82
2017-05-13T03:40:58.404Z,1003.82
2017-05-13T03:42:08.373Z,1003.8
2017-05-13T03:43:18.666Z,1003.86
2017-05-13T03:44:29.252Z,1003.88
2017-05-13T03:45:39.239Z,1003.89
2017-05-13T03:46:49.231Z,1003.91
2017-05-13T03:47:59.537Z,1003.89
2017-05-13T03:49:09.505Z,1003.94
2017-05-13T03:50:20.038Z,1003.92
2017-05-13T03:51:30.327Z,1003.92
2017-05-13T03:52:40.609Z,1003.92
2017-05-13T03:53:50.575Z,1003.92
2017-05-13T03:55:00.899Z,1003.91
2017-05-13T03:56:11.434Z,1003.93
2017-05-13T03:57:21.712Z,1003.97
2017-05-13T03:58:31.990Z,1003.96
2017-05-13T03:59:42.278Z,1003.96
2017-05-13T04:00:52.553Z,1004
2017-05-13T04:02:02.764Z,1004
2017-05-13T04:03:13.049Z,1004.05
2017-05-13T04:04:23.011Z,1004.03
2017-05-13T04:05:32.994Z,1004.04
2017-05-13T04:06:43.266Z,1004.04
2017-05-13T04:07:53.797Z,1004.04
2017-05-13T04:09:03.769Z,1004.03
2017-05-13T04:10:14.041Z,1004.05
2017-05-13T04:11:24.326Z,1004.08
2017-05-13T04:12:34.286Z,1004.1
2017-05-13T04:13:44.820Z,1004.05
2017-05-13T04:14:55.099Z,1004.12
2017-05-13T04:16:05.383Z,1004.11
2017-05-13T04:17:15.672Z,1004.11
2017-05-13T04:18:25.344Z,1004.06
2017-05-13T04:19:35.876Z,1004.12
2017-05-13T04:20:46.158Z,1004.15
2017-05-13T04:21:56.444Z,1004.13
2017-05-13T04:23:06.414Z,1004.12
2017-05-13T04:24:16.697Z,1004.19
2017-05-13T04:25:27.229Z,1004.17
2017-05-13T04:26:37.507Z,1004.15
2017-05-13T04:27:47.476Z,1004.14
2017-05-13T04:28:57.766Z,1004.13
2017-05-13T04:30:08.049Z,1004.16
2017-05-13T04:31:18.271Z,1004.16
2017-05-13T04:32:28.550Z,1004.2
2017-05-13T04:33:38.831Z,1004.18
2017-05-13T04:34:49.107Z,1004.22
2017-05-13T04:35:59.388Z,1004.21
2017-05-13T04:37:09.599Z,1004.23
2017-05-13T04:38:19.888Z,1004.23
2017-05-13T04:39:30.163Z,1004.22
2017-05-13T04:40:39.523Z,1004.26
2017-05-13T04:41:49.829Z,1004.27
2017-05-13T04:43:00.046Z,1004.29
2017-05-13T04:44:10.334Z,1004.27
2017-05-13T04:45:20.308Z,1004.29
2017-05-13T04:46:30.591Z,1004.29
2017-05-13T04:47:40.868Z,1004.27
2017-05-13T04:48:51.393Z,1004.26
2017-05-13T04:50:01.357Z,1004.26
2017-05-13T04:51:11.319Z,1004.22
2017-05-13T04:52:21.284Z,1004.25
2017-05-13T04:53:31.563Z,1004.26
2017-05-13T04:54:42.095Z,1004.23
2017-05-13T04:55:52.068Z,1004.25
2017-05-13T04:57:02.035Z,1004.25
2017-05-13T04:58:12.368Z,1004.21
2017-05-13T04:59:22.340Z,1004.24
2017-05-13T05:00:32.250Z,1004.24
2017-05-13T05:01:42.224Z,1004.25
2017-05-13T05:02:51.891Z,1004.21
2017-05-13T05:04:02.166Z,1004.26
2017-05-13T05:05:12.446Z,1004.21
2017-05-13T05:06:22.663Z,1004.26
2017-05-13T05:07:32.314Z,1004.28
2017-05-13T05:08:42.611Z,1004.27
2017-05-13T05:09:52.943Z,1004.26
2017-05-13T05:11:03.235Z,1004.3
2017-05-13T05:12:13.782Z,1004.35
2017-05-13T05:13:24.070Z,1004.33
2017-05-13T05:14:34.040Z,1004.33
2017-05-13T05:15:44.317Z,1004.32
2017-05-13T05:16:54.299Z,1004.38
2017-05-13T05:18:04.828Z,1004.33
2017-05-13T05:19:15.112Z,1004.42
2017-05-13T05:20:25.396Z,1004.45
2017-05-13T05:21:35.067Z,1004.42
2017-05-13T05:22:45.041Z,1004.45
2017-05-13T05:23:55.572Z,1004.46
2017-05-13T05:25:05.551Z,1004.46
2017-05-13T05:26:15.838Z,1004.47
2017-05-13T05:27:26.115Z,1004.48
2017-05-13T05:28:36.086Z,1004.51
2017-05-13T05:29:46.626Z,1004.51
2017-05-13T05:30:56.593Z,1004.55
2017-05-13T05:32:06.875Z,1004.56
2017-05-13T05:33:16.853Z,1004.57
2017-05-13T05:34:27.135Z,1004.6
2017-05-13T05:35:37.404Z,1004.63
2017-05-13T05:36:47.690Z,1004.67
2017-05-13T05:37:57.367Z,1004.7
2017-05-13T05:39:07.642Z,1004.71
2017-05-13T05:40:17.614Z,1004.72
2017-05-13T05:41:27.830Z,1004.73
2017-05-13T05:42:38.130Z,1004.74
2017-05-13T05:43:48.105Z,1004.77
2017-05-13T05:44:58.407Z,1004.78
2017-05-13T05:46:08.397Z,1004.8
2017-05-13T05:47:18.303Z,1004.83
2017-05-13T05:48:28.586Z,1004.86
2017-05-13T05:49:38.863Z,1004.86
2017-05-13T05:50:49.144Z,1004.86
2017-05-13T05:51:59.119Z,1004.89
2017-05-13T05:53:09.034Z,1004.91
2017-05-13T05:54:19.315Z,1004.98
2017-05-13T05:55:29.287Z,1004.94
2017-05-13T05:56:39.567Z,1004.99
2017-05-13T05:57:49.857Z,1004.97
2017-05-13T05:59:00.392Z,1005.01
2017-05-13T06:00:10.671Z,1005.06
2017-05-13T06:01:20.646Z,1005.01
2017-05-13T06:02:30.937Z,1005.03
2017-05-13T06:03:41.214Z,1005.05
2017-05-13T06:04:51.747Z,1005.06
2017-05-13T06:06:02.033Z,1005.05
2017-05-13T06:07:11.999Z,1005.08
2017-05-13T06:08:22.319Z,1005.08
2017-05-13T06:09:32.302Z,1005.05
2017-05-13T06:10:42.526Z,1005.06
2017-05-13T06:11:52.813Z,1005.09
2017-05-13T06:13:02.508Z,1005.1
2017-05-13T06:14:12.783Z,1005.12
2017-05-13T06:15:23.068Z,1005.11
2017-05-13T06:16:33.610Z,1005.11
2017-05-13T06:17:43.882Z,1005.1
2017-05-13T06:18:54.166Z,1005.14
2017-05-13T06:20:04.451Z,1005.14
2017-05-13T06:21:14.734Z,1005.16
2017-05-13T06:22:24.956Z,1005.14
2017-05-13T06:23:35.256Z,1005.12
2017-05-13T06:24:44.912Z,1005.14
2017-05-13T06:25:55.215Z,1005.19
2017-05-13T06:27:05.499Z,1005.16
2017-05-13T06:28:16.036Z,1005.18
2017-05-13T06:29:26.367Z,1005.18
2017-05-13T06:30:36.668Z,1005.16
2017-05-13T06:31:46.992Z,1005.17
2017-05-13T06:32:57.270Z,1005.19
2017-05-13T06:34:07.851Z,1005.19
2017-05-13T06:35:17.832Z,1005.2
2017-05-13T06:36:28.125Z,1005.23
2017-05-13T06:37:38.093Z,1005.18
2017-05-13T06:38:48.381Z,1005.23
2017-05-13T06:39:58.934Z,1005.22
2017-05-13T06:41:09.219Z,1005.28
2017-05-13T06:42:19.203Z,1005.28
2017-05-13T06:43:28.553Z,1005.3
2017-05-13T06:44:38.833Z,1005.27
2017-05-13T06:45:49.066Z,1005.3
2017-05-13T06:46:59.359Z,1005.31
2017-05-13T06:48:09.648Z,1005.32
2017-05-13T06:49:19.936Z,1005.32
2017-05-13T06:50:30.253Z,1005.31
2017-05-13T06:51:40.478Z,1005.36
2017-05-13T06:52:50.764Z,1005.38
2017-05-13T06:54:01.048Z,1005.36
2017-05-13T06:55:11.324Z,1005.4
2017-05-13T06:56:21.303Z,1005.45
2017-05-13T06:57:31.836Z,1005.44
2017-05-13T06:58:42.219Z,1005.47
2017-05-13T06:59:51.908Z,1005.48
2017-05-13T07:01:02.188Z,1005.48
2017-05-13T07:02:12.153Z,1005.53
2017-05-13T07:03:22.380Z,1005.51
2017-05-13T07:04:32.344Z,1005.55
2017-05-13T07:05:42.317Z,1005.58
2017-05-13T07:06:52.287Z,1005.59
2017-05-13T07:08:02.572Z,1005.6
2017-05-13T07:09:13.107Z,1005.62
2017-05-13T07:10:23.143Z,1005.58
2017-05-13T07:11:33.422Z,1005.59
2017-05-13T07:12:43.718Z,1005.6
2017-05-13T07:13:54.212Z,1005.59
2017-05-13T07:15:04.143Z,1005.62
2017-05-13T07:16:14.427Z,1005.58
2017-05-13T07:17:24.708Z,1005.6
2017-05-13T07:18:34.988Z,1005.58
2017-05-13T07:19:45.265Z,1005.59
2017-05-13T07:20:55.803Z,1005.58
2017-05-13T07:22:06.090Z,1005.61
2017-05-13T07:23:16.062Z,1005.58
2017-05-13T07:24:26.029Z,1005.59
2017-05-13T07:25:36.316Z,1005.62
2017-05-13T07:26:46.862Z,1005.6
2017-05-13T07:27:56.531Z,1005.58
2017-05-13T07:29:06.508Z,1005.59
2017-05-13T07:30:16.806Z,1005.59
2017-05-13T07:31:27.084Z,1005.61
2017-05-13T07:32:37.633Z,1005.62
2017-05-13T07:33:47.917Z,1005.66
2017-05-13T07:34:57.892Z,1005.67
2017-05-13T07:36:07.873Z,1005.68
2017-05-13T07:37:18.151Z,1005.68
2017-05-13T07:38:28.686Z,1005.71
2017-05-13T07:39:38.969Z,1005.74
2017-05-13T07:40:49.306Z,1005.73
2017-05-13T07:41:59.595Z,1005.8
2017-05-13T07:43:09.883Z,1005.86
2017-05-13T07:44:20.479Z,1005.84
2017-05-13T07:45:30.455Z,1005.84
2017-05-13T07:46:40.736Z,1005.88
2017-05-13T07:47:51.121Z,1005.87
2017-05-13T07:49:01.406Z,1005.98
2017-05-13T07:50:11.957Z,1006.01
2017-05-13T07:51:22.261Z,1006.01
2017-05-13T07:52:32.546Z,1006.04
2017-05-13T07:53:42.836Z,1006.04
2017-05-13T07:54:53.126Z,1006.08
2017-05-13T07:56:03.351Z,1006.1
2017-05-13T07:57:13.335Z,1006.13
2017-05-13T07:58:23.619Z,1006.13
2017-05-13T07:59:33.605Z,1006.19
2017-05-13T08:00:43.891Z,1006.19
2017-05-13T08:01:54.430Z,1006.21
2017-05-13T08:03:04.708Z,1006.25
2017-05-13T08:04:14.983Z,1006.24
2017-05-13T08:05:24.633Z,1006.26
2017-05-13T08:06:34.938Z,1006.26
2017-05-13T08:07:44.885Z,1006.29
2017-05-13T08:08:55.216Z,1006.28
2017-05-13T08:10:05.196Z,1006.28
2017-05-13T08:11:15.496Z,1006.28
2017-05-13T08:12:25.469Z,1006.3
2017-05-13T08:13:36.010Z,1006.32
2017-05-13T08:14:45.984Z,1006.33
2017-05-13T08:15:56.268Z,1006.33
2017-05-13T08:17:06.586Z,1006.32
2017-05-13T08:18:16.880Z,1006.36
2017-05-13T08:19:27.417Z,1006.35
2017-05-13T08:20:37.699Z,1006.42
2017-05-13T08:21:48.433Z,1006.4
2017-05-13T08:22:58.715Z,1006.42
2017-05-13T08:24:09.006Z,1006.47
2017-05-13T08:25:19.538Z,1006.48
2017-05-13T08:26:29.828Z,1006.47
2017-05-13T08:27:40.119Z,1006.52
2017-05-13T08:28:50.409Z,1006.5
2017-05-13T08:30:00.695Z,1006.54
2017-05-13T08:31:11.248Z,1006.55
2017-05-13T08:32:21.220Z,1006.55
2017-05-13T08:33:31.188Z,1006.55
2017-05-13T08:34:41.481Z,1006.58
2017-05-13T08:35:51.516Z,1006.61
2017-05-13T08:37:02.108Z,1006.59
2017-05-13T08:38:12.387Z,1006.65
2017-05-13T08:39:22.684Z,1006.68
2017-05-13T08:40:32.417Z,1006.69
2017-05-13T08:41:42.766Z,1006.68
2017-05-13T08:42:52.991Z,1006.72
2017-05-13T08:44:03.286Z,1006.69
2017-05-13T08:45:13.572Z,1006.75
2017-05-13T08:46:23.859Z,1006.75
2017-05-13T08:47:34.163Z,1006.76
2017-05-13T08:48:44.696Z,1006.8
2017-05-13T08:49:54.976Z,1006.79
2017-05-13T08:51:05.270Z,1006.8
2017-05-13T08:52:15.572Z,1006.84
2017-05-13T08:53:25.870Z,1006.85
2017-05-13T08:54:36.427Z,1006.84
2017-05-13T08:55:46.720Z,1006.88
2017-05-13T08:56:56.909Z,1006.89
2017-05-13T08:58:07.200Z,1006.89
2017-05-13T08:59:17.579Z,1006.88
2017-05-13T09:00:28.116Z,1006.9
2017-05-13T09:01:38.081Z,1006.86
2017-05-13T09:02:48.361Z,1006.86
2017-05-13T09:03:58.642Z,1006.88
2017-05-13T09:05:08.937Z,1006.89
2017-05-13T09:06:19.512Z,1006.88
2017-05-13T09:07:29.796Z,1006.85
2017-05-13T09:08:39.764Z,1006.89
2017-05-13T09:09:50.033Z,1006.86
2017-05-13T09:11:00.011Z,1006.89
2017-05-13T09:12:10.604Z,1006.87
2017-05-13T09:13:20.590Z,1006.87
2017-05-13T09:14:30.874Z,1006.87
2017-05-13T09:15:41.182Z,1006.89
2017-05-13T09:16:51.466Z,1006.92
2017-05-13T09:18:02.007Z,1006.92
2017-05-13T09:19:12.304Z,1006.9
2017-05-13T09:20:22.577Z,1006.9
2017-05-13T09:21:32.887Z,1006.92
2017-05-13T09:22:43.170Z,1006.94
2017-05-13T09:23:53.400Z,1006.93
2017-05-13T09:25:03.733Z,1006.97
2017-05-13T09:26:14.016Z,1006.96
2017-05-13T09:27:24.002Z,1007.02
2017-05-13T09:28:33.984Z,1007.03
2017-05-13T09:29:44.588Z,1007.02
2017-05-13T09:30:54.870Z,1007
2017-05-13T09:32:04.842Z,1007.02
2017-05-13T09:33:15.121Z,1007.03
2017-05-13T09:34:25.406Z,1007.03
2017-05-13T09:35:35.936Z,1007.06
2017-05-13T09:36:45.907Z,1007.04
2017-05-13T09:37:56.187Z,1007.07
2017-05-13T09:39:06.492Z,1007.04
2017-05-13T09:40:16.789Z,1007.05
2017-05-13T09:41:27.325Z,1007.05
2017-05-13T09:42:37.353Z,1007.04
2017-05-13T09:43:47.694Z,1007.1
2017-05-13T09:44:57.660Z,1007.1
2017-05-13T09:46:07.626Z,1007.08
2017-05-13T09:47:18.192Z,1007.07
2017-05-13T09:48:27.588Z,1007.1
2017-05-13T09:49:37.085Z,1007.12
2017-05-13T09:50:47.075Z,1007.16
2017-05-13T09:51:57.362Z,1007.14
2017-05-13T09:53:07.897Z,1007.15
2017-05-13T09:54:18.422Z,1007.17
2017-05-13T09:55:28.400Z,1007.19
2017-05-13T09:56:38.722Z,1007.2
2017-05-13T09:57:48.694Z,1007.22
2017-05-13T09:58:58.356Z,1007.2
2017-05-13T10:00:08.688Z,1007.23
2017-05-13T10:01:18.351Z,1007.24
2017-05-13T10:02:28.635Z,1007.25
2017-05-13T10:03:38.914Z,1007.28
2017-05-13T10:04:48.819Z,1007.26
2017-05-13T10:05:59.103Z,1007.29
2017-05-13T10:07:09.401Z,1007.32
2017-05-13T10:08:19.365Z,1007.32
2017-05-13T10:09:29.650Z,1007.33
2017-05-13T10:10:40.185Z,1007.31
2017-05-13T10:11:50.463Z,1007.33
2017-05-13T10:13:00.748Z,1007.31
2017-05-13T10:14:10.770Z,1007.35
2017-05-13T10:15:21.055Z,1007.31
2017-05-13T10:16:31.267Z,1007.37
2017-05-13T10:17:41.540Z,1007.36
2017-05-13T10:18:51.511Z,1007.39
2017-05-13T10:20:01.846Z,1007.38
2017-05-13T10:21:12.147Z,1007.36
2017-05-13T10:22:22.060Z,1007.41
2017-05-13T10:23:32.341Z,1007.39
2017-05-13T10:24:42.344Z,1007.41
2017-05-13T10:25:52.334Z,1007.41
2017-05-13T10:27:02.637Z,1007.41
2017-05-13T10:28:12.851Z,1007.43
2017-05-13T10:29:23.144Z,1007.46
2017-05-13T10:30:33.428Z,1007.45
2017-05-13T10:31:43.402Z,1007.45
2017-05-13T10:32:53.696Z,1007.48
2017-05-13T10:34:04.253Z,1007.5
2017-05-13T10:35:14.537Z,1007.49
2017-05-13T10:36:24.510Z,1007.49
2017-05-13T10:37:34.792Z,1007.48
2017-05-13T10:38:44.789Z,1007.48
2017-05-13T10:39:55.321Z,1007.46
2017-05-13T10:41:05.297Z,1007.45
2017-05-13T10:42:15.597Z,1007.51
2017-05-13T10:43:25.878Z,1007.46
2017-05-13T10:44:36.174Z,1007.45
2017-05-13T10:45:46.706Z,1007.47
2017-05-13T10:46:56.993Z,1007.47
2017-05-13T10:48:07.270Z,1007.49
2017-05-13T10:49:17.553Z,1007.42
2017-05-13T10:50:27.843Z,1007.49
2017-05-13T10:51:38.374Z,1007.47
2017-05-13T10:52:48.348Z,1007.45
2017-05-13T10:53:58.633Z,1007.47
2017-05-13T10:55:08.928Z,1007.46
2017-05-13T10:56:19.203Z,1007.47
2017-05-13T10:57:29.737Z,1007.48
2017-05-13T10:58:40.035Z,1007.47
2017-05-13T10:59:50.318Z,1007.45
2017-05-13T11:01:00.604Z,1007.49
2017-05-13T11:02:10.897Z,1007.48
2017-05-13T11:03:21.143Z,1007.48
2017-05-13T11:04:31.106Z,1007.45
2017-05-13T11:05:41.389Z,1007.51
2017-05-13T11:06:51.665Z,1007.49
2017-05-13T11:08:01.344Z,1007.5
2017-05-13T11:09:11.872Z,1007.47
2017-05-13T11:10:21.847Z,1007.47
2017-05-13T11:11:32.155Z,1007.52
2017-05-13T11:12:42.443Z,1007.54
2017-05-13T11:13:52.729Z,1007.51
2017-05-13T11:15:03.268Z,1007.5
2017-05-13T11:16:13.249Z,1007.53
2017-05-13T11:17:23.535Z,1007.5
2017-05-13T11:18:33.820Z,1007.5
2017-05-13T11:19:44.105Z,1007.53
2017-05-13T11:20:54.321Z,1007.54
2017-05-13T11:22:04.604Z,1007.54
2017-05-13T11:23:14.889Z,1007.51
2017-05-13T11:24:25.177Z,1007.5
2017-05-13T11:25:35.462Z,1007.53
2017-05-13T11:26:46.140Z,1007.54
2017-05-13T11:27:56.436Z,1007.55
2017-05-13T11:29:06.778Z,1007.52
2017-05-13T11:30:16.753Z,1007.52
2017-05-13T11:31:26.421Z,1007.56
2017-05-13T11:32:36.652Z,1007.55
2017-05-13T11:33:47.035Z,1007.58
2017-05-13T11:34:57.015Z,1007.57
2017-05-13T11:36:07.303Z,1007.53
2017-05-13T11:37:17.281Z,1007.52
2017-05-13T11:38:27.819Z,1007.52
2017-05-13T11:39:38.097Z,1007.56
2017-05-13T11:40:48.381Z,1007.56
2017-05-13T11:41:58.664Z,1007.53
2017-05-13T11:43:08.964Z,1007.57
2017-05-13T11:44:19.187Z,1007.55
2017-05-13T11:45:29.218Z,1007.57
2017-05-13T11:46:39.512Z,1007.56
2017-05-13T11:47:49.813Z,1007.53
2017-05-13T11:49:00.128Z,1007.58
2017-05-13T11:50:10.664Z,1007.6
2017-05-13T11:51:20.968Z,1007.52
2017-05-13T11:52:31.303Z,1007.57
2017-05-13T11:53:41.586Z,1007.57
2017-05-13T11:54:51.567Z,1007.54
2017-05-13T11:56:01.797Z,1007.55
2017-05-13T11:57:12.094Z,1007.53
2017-05-13T11:58:22.421Z,1007.52
2017-05-13T11:59:32.707Z,1007.53
2017-05-13T12:00:43.081Z,1007.56
2017-05-13T12:01:53.302Z,1007.52
2017-05-13T12:03:03.605Z,1007.54
2017-05-13T12:04:13.269Z,1007.52
2017-05-13T12:05:23.558Z,1007.56
2017-05-13T12:06:33.850Z,1007.58
2017-05-13T12:07:44.387Z,1007.53
2017-05-13T12:08:54.361Z,1007.53
2017-05-13T12:10:04.654Z,1007.55
2017-05-13T12:11:14.944Z,1007.54
2017-05-13T12:12:24.918Z,1007.54
2017-05-13T12:13:35.145Z,1007.56
2017-05-13T12:14:45.426Z,1007.54
2017-05-13T12:15:55.746Z,1007.54
2017-05-13T12:17:06.049Z,1007.53
2017-05-13T12:18:16.029Z,1007.48
2017-05-13T12:19:26.562Z,1007.48
2017-05-13T12:20:36.849Z,1007.52
2017-05-13T12:21:47.129Z,1007.51
2017-05-13T12:22:57.101Z,1007.53
2017-05-13T12:24:07.391Z,1007.54
2017-05-13T12:25:17.611Z,1007.52
2017-05-13T12:26:27.890Z,1007.53
2017-05-13T12:27:37.926Z,1007.54
2017-05-13T12:28:47.893Z,1007.49
2017-05-13T12:29:57.863Z,1007.51
2017-05-13T12:31:08.411Z,1007.5
2017-05-13T12:32:18.080Z,1007.52
2017-05-13T12:33:28.330Z,1007.54
2017-05-13T12:34:38.644Z,1007.52
2017-05-13T12:35:48.950Z,1007.52
2017-05-13T12:36:59.178Z,1007.5
2017-05-13T12:38:09.155Z,1007.52
2017-05-13T12:39:19.142Z,1007.49
2017-05-13T12:40:29.439Z,1007.52
2017-05-13T12:41:39.775Z,1007.52
2017-05-13T12:42:50.326Z,1007.51
2017-05-13T12:44:00.615Z,1007.55
2017-05-13T12:45:10.903Z,1007.52
2017-05-13T12:46:21.183Z,1007.53
2017-05-13T12:47:31.466Z,1007.52
2017-05-13T12:48:42.000Z,1007.48
2017-05-13T12:49:52.291Z,1007.47
2017-05-13T12:51:02.600Z,1007.51
2017-05-13T12:52:12.885Z,1007.51
2017-05-13T12:53:23.167Z,1007.49
2017-05-13T12:54:33.587Z,1007.54
2017-05-13T12:55:43.873Z,1007.47
2017-05-13T12:56:54.169Z,1007.54
2017-05-13T12:58:04.143Z,1007.54
2017-05-13T12:59:14.117Z,1007.53
2017-05-13T13:00:24.650Z,1007.42
2017-05-13T13:01:34.937Z,1007.45
2017-05-13T13:02:45.223Z,1007.42
2017-05-13T13:03:55.515Z,1007.44
2017-05-13T13:05:05.513Z,1007.44
2017-05-13T13:06:15.727Z,1007.47
2017-05-13T13:07:26.008Z,1007.48
2017-05-13T13:08:35.980Z,1007.48
2017-05-13T13:09:45.957Z,1007.55
2017-05-13T13:10:56.268Z,1007.52
2017-05-13T13:12:06.501Z,1007.5
2017-05-13T13:13:16.782Z,1007.52
2017-05-13T13:14:27.073Z,1007.46
2017-05-13T13:15:37.367Z,1007.49
2017-05-13T13:16:47.654Z,1007.43
2017-05-13T13:18:03.146Z,1007.51
2017-05-13T13:19:13.435Z,1007.51
2017-05-13T13:20:23.725Z,1007.53
2017-05-13T13:21:34.016Z,1007.47
2017-05-13T13:22:44.314Z,1007.47
2017-05-13T13:23:54.862Z,1007.5
2017-05-13T13:25:04.846Z,1007.54
2017-05-13T13:26:15.134Z,1007.52
2017-05-13T13:27:25.125Z,1007.55
2017-05-13T13:28:35.111Z,1007.54
2017-05-13T13:29:45.877Z,1007.55
2017-05-13T13:30:55.859Z,1007.5
2017-05-13T13:32:06.136Z,1007.46
2017-05-13T13:33:15.481Z,1007.46
2017-05-13T13:34:25.773Z,1007.47
2017-05-13T13:35:35.731Z,1007.45
2017-05-13T13:36:46.025Z,1007.44
2017-05-13T13:37:56.306Z,1007.49
2017-05-13T13:39:06.609Z,1007.47
2017-05-13T13:40:16.913Z,1007.43
2017-05-13T13:41:27.458Z,1007.42
2017-05-13T13:42:37.750Z,1007.4
2017-05-13T13:43:48.038Z,1007.46
2017-05-13T13:44:58.016Z,1007.42
2017-05-13T13:46:08.293Z,1007.47
2017-05-13T13:47:18.463Z,1007.45
2017-05-13T13:48:28.745Z,1007.45
2017-05-13T13:49:39.029Z,1007.43
2017-05-13T13:50:49.026Z,1007.49
2017-05-13T13:51:59.341Z,1007.43
2017-05-13T13:53:09.931Z,1007.44
2017-05-13T13:54:20.213Z,1007.49
2017-05-13T13:55:29.881Z,1007.47
2017-05-13T13:56:39.556Z,1007.44
2017-05-13T13:57:49.868Z,1007.44
2017-05-13T13:59:00.089Z,1007.45
2017-05-13T14:00:10.426Z,1007.45
2017-05-13T14:01:20.706Z,1007.42
2017-05-13T14:02:30.688Z,1007.46
2017-05-13T14:03:40.654Z,1007.43
2017-05-13T14:04:50.877Z,1007.46
2017-05-13T14:06:00.868Z,1007.48
2017-05-13T14:07:10.863Z,1007.5
2017-05-13T14:08:20.857Z,1007.51
2017-05-13T14:09:30.523Z,1007.51
2017-05-13T14:10:41.082Z,1007.51
2017-05-13T14:11:51.363Z,1007.54